createdAt,value
2023-01-26T00:01:25.483Z,15.23
2023-01-26T00:03:52.218Z,14.37
2023-01-26T00:06:20.306Z,14.03
2023-01-26T00:08:52.537Z,15.33
2023-01-26T00:11:24.385Z,13.93
2023-01-26T00:13:51.458Z,13.93
2023-01-26T00:16:18.250Z,13.57
2023-01-26T00:18:45.327Z,13.23
2023-01-26T00:21:15.157Z,13.53
2023-01-26T00:23:42.097Z,13.90
2023-01-26T00:26:11.143Z,14.20
2023-01-26T00:28:37.747Z,15.10
2023-01-26T00:31:07.066Z,14.00
2023-01-26T00:33:33.920Z,13.53
2023-01-26T00:36:00.715Z,12.90
2023-01-26T00:38:27.421Z,14.43
2023-01-26T00:40:54.415Z,13.30
2023-01-26T00:43:21.210Z,13.43
2023-01-26T00:45:47.904Z,14.63
2023-01-26T00:48:14.557Z,12.97
2023-01-26T00:50:41.267Z,12.97
2023-01-26T00:53:07.932Z,12.93
2023-01-26T00:55:34.602Z,14.57
2023-01-26T00:58:06.042Z,12.80
2023-01-26T01:00:33.886Z,13.07
2023-01-26T01:03:00.813Z,13.83
2023-01-26T01:05:29.752Z,15.20
2023-01-26T01:07:56.579Z,12.90
2023-01-26T01:10:24.324Z,14.57
2023-01-26T01:12:50.941Z,13.30
2023-01-26T01:15:17.772Z,13.67
2023-01-26T01:17:44.486Z,14.40
2023-01-26T01:20:12.516Z,13.20
2023-01-26T01:22:39.339Z,14.43
2023-01-26T01:25:06.208Z,12.27
2023-01-26T01:27:32.842Z,14.30
2023-01-26T01:29:59.501Z,12.00
2023-01-26T01:32:26.232Z,13.10
2023-01-26T01:34:52.857Z,14.37
2023-01-26T01:37:19.575Z,14.30
2023-01-26T01:39:46.405Z,15.93
2023-01-26T01:42:13.298Z,12.70
2023-01-26T01:44:39.894Z,13.73
2023-01-26T01:47:20.496Z,14.27
2023-01-26T01:49:49.919Z,14.60
2023-01-26T01:52:21.487Z,13.53
2023-01-26T01:54:56.203Z,14.20
2023-01-26T01:57:29.159Z,13.37
2023-01-26T02:00:07.201Z,13.47
2023-01-26T02:02:35.704Z,13.33
2023-01-26T02:05:12.661Z,13.57
2023-01-26T02:07:39.704Z,12.60
2023-01-26T02:10:19.423Z,13.70
2023-01-26T02:12:50.415Z,14.37
2023-01-26T02:15:17.134Z,14.30
2023-01-26T02:17:44.361Z,14.47
2023-01-26T02:20:28.563Z,15.57
2023-01-26T02:23:01.676Z,15.40
2023-01-26T02:26:04.621Z,13.93
2023-01-26T02:28:32.813Z,14.43
2023-01-26T02:31:00.666Z,15.80
2023-01-26T02:33:30.593Z,14.97
2023-01-26T02:35:57.379Z,15.60
2023-01-26T02:38:28.920Z,14.30
2023-01-26T02:40:59.771Z,14.03
2023-01-26T02:43:27.663Z,15.73
2023-01-26T02:45:55.001Z,13.93
2023-01-26T02:48:41.381Z,13.60
2023-01-26T02:51:08.232Z,15.27
2023-01-26T02:53:35.083Z,15.53
2023-01-26T02:56:01.915Z,16.30
2023-01-26T02:58:28.657Z,16.23
2023-01-26T03:00:55.953Z,15.90
2023-01-26T03:03:25.757Z,14.63
2023-01-26T03:05:52.938Z,17.30
2023-01-26T03:08:19.592Z,15.30
2023-01-26T03:10:47.571Z,15.43
2023-01-26T03:13:14.285Z,14.93
2023-01-26T03:15:52.352Z,15.50
2023-01-26T03:18:39.543Z,17.80
2023-01-26T03:21:33.125Z,16.70
2023-01-26T03:24:19.013Z,15.10
2023-01-26T03:27:04.927Z,16.63
2023-01-26T03:29:32.098Z,16.90
2023-01-26T03:32:02.066Z,16.00
2023-01-26T03:34:29.594Z,16.70
2023-01-26T03:36:56.622Z,15.10
2023-01-26T03:39:41.665Z,17.03
2023-01-26T03:42:26.854Z,16.93
2023-01-26T03:45:12.331Z,18.03
2023-01-26T03:47:57.801Z,18.07
2023-01-26T03:50:43.436Z,16.80
2023-01-26T03:53:33.761Z,14.90
2023-01-26T03:56:19.953Z,14.60
2023-01-26T03:58:50.357Z,15.87
2023-01-26T04:01:26.253Z,12.73
2023-01-26T04:04:13.221Z,13.70
2023-01-26T04:07:00.686Z,15.37
2023-01-26T04:09:27.735Z,14.70
2023-01-26T04:11:54.598Z,15.20
2023-01-26T04:14:49.884Z,15.37
2023-01-26T04:17:36.743Z,14.47
2023-01-26T04:20:23.162Z,15.10
2023-01-26T04:22:49.812Z,14.70
2023-01-26T04:25:18.505Z,13.70
2023-01-26T04:27:46.068Z,12.50
2023-01-26T04:30:14.861Z,13.07
2023-01-26T04:32:42.085Z,12.63
2023-01-26T04:35:10.320Z,14.37
2023-01-26T04:37:37.665Z,12.23
2023-01-26T04:40:05.422Z,12.13
2023-01-26T04:42:32.072Z,11.87
2023-01-26T04:44:58.854Z,12.40
2023-01-26T04:47:27.056Z,11.60
2023-01-26T04:49:55.551Z,10.93
2023-01-26T04:52:22.200Z,11.50
2023-01-26T04:54:48.945Z,10.73
2023-01-26T04:57:15.619Z,11.40
2023-01-26T04:59:42.447Z,12.47
2023-01-26T05:02:09.410Z,11.80
2023-01-26T05:04:36.167Z,13.00
2023-01-26T05:07:03.005Z,11.60
2023-01-26T05:09:29.648Z,11.70
2023-01-26T05:12:16.285Z,11.20
2023-01-26T05:14:43.011Z,10.97
2023-01-26T05:17:09.736Z,11.67
2023-01-26T05:19:36.398Z,11.10
2023-01-26T05:22:03.050Z,12.33
2023-01-26T05:24:29.718Z,11.23
2023-01-26T05:27:16.443Z,11.80
2023-01-26T05:29:43.081Z,12.50
2023-01-26T05:32:09.805Z,12.07
2023-01-26T05:34:36.424Z,13.00
2023-01-26T05:37:03.287Z,11.40
2023-01-26T05:39:30.058Z,12.07
2023-01-26T05:41:56.969Z,13.27
2023-01-26T05:44:24.908Z,12.70
2023-01-26T05:46:52.233Z,13.33
2023-01-26T05:49:18.892Z,15.20
2023-01-26T05:51:45.523Z,12.00
2023-01-26T05:54:12.275Z,11.77
2023-01-26T05:56:38.894Z,12.70
2023-01-26T05:59:05.596Z,12.50
2023-01-26T06:01:32.208Z,14.87
2023-01-26T06:03:58.968Z,13.53
2023-01-26T06:06:25.748Z,12.80
2023-01-26T06:08:52.404Z,10.93
2023-01-26T06:11:19.408Z,12.57
2023-01-26T06:13:46.193Z,11.93
2023-01-26T06:16:12.827Z,12.50
2023-01-26T06:18:39.423Z,12.10
2023-01-26T06:21:06.079Z,12.50
2023-01-26T06:23:32.847Z,9.23
2023-01-26T06:26:00.847Z,14.90
2023-01-26T06:28:31.170Z,13.93
2023-01-26T06:31:05.220Z,13.30
2023-01-26T06:33:34.926Z,13.60
2023-01-26T06:36:06.735Z,12.80
2023-01-26T06:38:33.420Z,14.13
2023-01-26T06:41:04.690Z,12.67
2023-01-26T06:43:32.510Z,12.47
2023-01-26T06:45:59.841Z,13.03
2023-01-26T06:48:27.966Z,12.77
2023-01-26T06:50:57.859Z,13.30
2023-01-26T06:53:43.432Z,12.37
2023-01-26T06:56:10.153Z,13.53
2023-01-26T06:58:36.802Z,13.20
2023-01-26T07:01:03.472Z,12.53
2023-01-26T07:03:30.615Z,11.27
2023-01-26T07:05:57.241Z,11.10
2023-01-26T07:08:23.901Z,10.03
2023-01-26T07:10:51.111Z,10.30
2023-01-26T07:13:17.891Z,12.30
2023-01-26T07:15:44.568Z,9.97
2023-01-26T07:18:11.555Z,11.47
2023-01-26T07:20:38.303Z,10.17
2023-01-26T07:23:04.962Z,11.87
2023-01-26T07:25:31.599Z,11.30
2023-01-26T07:27:59.193Z,9.97
2023-01-26T07:30:26.634Z,9.30
2023-01-26T07:32:53.301Z,10.67
2023-01-26T07:35:19.932Z,11.07
2023-01-26T07:37:46.544Z,11.47
2023-01-26T07:40:13.632Z,17.30
2023-01-26T07:42:40.407Z,12.20
2023-01-26T07:45:07.784Z,16.17
2023-01-26T07:47:35.887Z,14.07
2023-01-26T07:50:02.578Z,12.00
2023-01-26T07:52:29.325Z,11.10
2023-01-26T07:54:55.964Z,10.57
2023-01-26T07:57:22.581Z,10.33
2023-01-26T07:59:49.223Z,11.37
2023-01-26T08:02:16.038Z,11.77
2023-01-26T08:04:42.681Z,11.23
2023-01-26T08:07:09.333Z,11.67
2023-01-26T08:09:36.074Z,10.07
2023-01-26T08:12:02.860Z,10.33
2023-01-26T08:14:45.100Z,9.33
2023-01-26T08:17:12.962Z,11.30
2023-01-26T08:19:39.611Z,11.80
2023-01-26T08:22:06.351Z,10.83
2023-01-26T08:24:32.949Z,10.10
2023-01-26T08:26:59.556Z,10.80
2023-01-26T08:29:26.147Z,10.90
2023-01-26T08:31:53.483Z,12.73
2023-01-26T08:34:22.457Z,9.73
2023-01-26T08:36:49.279Z,11.70
2023-01-26T08:39:15.980Z,10.60
2023-01-26T08:41:42.619Z,10.13
2023-01-26T08:44:10.452Z,9.67
2023-01-26T08:46:37.177Z,11.20
2023-01-26T08:49:03.936Z,20.73
2023-01-26T08:51:30.883Z,23.13
2023-01-26T08:53:57.604Z,16.93
2023-01-26T08:56:24.557Z,12.10
2023-01-26T08:58:51.189Z,9.87
2023-01-26T09:01:18.233Z,22.03
2023-01-26T09:03:45.089Z,13.87
2023-01-26T09:06:14.601Z,11.70
2023-01-26T09:08:41.686Z,15.40
2023-01-26T09:11:08.997Z,19.03
2023-01-26T09:13:37.194Z,11.93
2023-01-26T09:16:08.209Z,11.17
2023-01-26T09:18:35.121Z,21.80
2023-01-26T09:21:09.834Z,12.73
2023-01-26T09:23:36.713Z,11.10
2023-01-26T09:26:04.200Z,7.07
2023-01-26T09:28:30.960Z,13.10
2023-01-26T09:30:57.743Z,29.63
2023-01-26T09:33:25.364Z,37.43
2023-01-26T09:35:51.991Z,6.80
2023-01-26T09:38:18.706Z,6.97
2023-01-26T09:41:05.140Z,6.90
2023-01-26T09:43:51.015Z,7.80
2023-01-26T09:46:25.200Z,7.03
2023-01-26T09:49:05.964Z,6.97
2023-01-26T09:51:37.638Z,7.57
2023-01-26T09:54:26.352Z,7.27
2023-01-26T09:56:55.525Z,6.30
2023-01-26T09:59:44.314Z,5.97
2023-01-26T10:02:29.253Z,5.90
2023-01-26T10:04:59.743Z,5.93
2023-01-26T10:07:26.435Z,5.07
2023-01-26T10:09:53.912Z,4.90
2023-01-26T10:12:36.228Z,5.20
2023-01-26T10:15:21.039Z,6.60
2023-01-26T10:17:48.931Z,5.20
2023-01-26T10:20:15.572Z,4.00
2023-01-26T10:22:48.637Z,4.50
2023-01-26T10:25:21.262Z,4.40
2023-01-26T10:27:48.007Z,4.47
2023-01-26T10:30:20.590Z,4.90
2023-01-26T10:32:52.986Z,4.73
2023-01-26T10:35:24.630Z,4.70
2023-01-26T10:37:53.023Z,4.57
2023-01-26T10:40:20.758Z,4.10
2023-01-26T10:42:58.709Z,4.63
2023-01-26T10:45:31.623Z,4.20
2023-01-26T10:48:18.174Z,3.57
2023-01-26T10:50:46.232Z,4.30
2023-01-26T10:53:28.213Z,3.93
2023-01-26T10:56:01.335Z,4.50
2023-01-26T10:58:51.864Z,4.43
2023-01-26T11:01:23.185Z,4.53
2023-01-26T11:04:07.339Z,4.53
2023-01-26T11:06:35.421Z,4.60
2023-01-26T11:09:19.120Z,4.67
2023-01-26T11:12:02.231Z,3.33
2023-01-26T11:14:30.422Z,3.67
2023-01-26T11:17:09.859Z,3.73
2023-01-26T11:20:01.977Z,2.30
2023-01-26T11:22:42.260Z,2.67
2023-01-26T11:25:27.112Z,3.40
2023-01-26T11:27:56.562Z,3.70
2023-01-26T11:30:29.153Z,2.83
2023-01-26T11:32:55.711Z,3.13
2023-01-26T11:35:37.570Z,3.27
2023-01-26T11:38:40.920Z,2.80
2023-01-26T11:41:26.250Z,2.97
2023-01-26T11:44:17.545Z,3.00
2023-01-26T11:47:03.890Z,3.30
2023-01-26T11:49:46.589Z,2.67
2023-01-26T11:52:27.255Z,5.10
2023-01-26T11:55:32.242Z,4.50
2023-01-26T11:58:23.351Z,4.33
2023-01-26T12:00:57.258Z,6.67
2023-01-26T12:03:41.630Z,5.80
2023-01-26T12:06:20.002Z,4.60
2023-01-26T12:09:05.419Z,4.50
2023-01-26T12:12:05.222Z,5.57
2023-01-26T12:14:47.738Z,11.77
2023-01-26T12:17:51.072Z,10.47
2023-01-26T12:20:45.471Z,5.67
2023-01-26T12:23:25.528Z,4.40
2023-01-26T12:26:03.729Z,4.07
2023-01-26T12:28:36.799Z,5.50
2023-01-26T12:31:12.920Z,10.77
2023-01-26T12:33:39.738Z,5.50
2023-01-26T12:36:28.575Z,3.93
2023-01-26T12:39:08.084Z,4.63
2023-01-26T12:41:53.361Z,5.70
2023-01-26T12:44:33.763Z,5.20
2023-01-26T12:47:19.477Z,3.63
2023-01-26T12:50:09.583Z,3.60
2023-01-26T12:52:43.588Z,5.23
2023-01-26T12:55:18.402Z,4.77
2023-01-26T12:58:02.172Z,10.53
2023-01-26T13:00:35.289Z,4.17
2023-01-26T13:03:22.365Z,8.33
2023-01-26T13:05:58.606Z,4.93
2023-01-26T13:08:31.218Z,4.83
2023-01-26T13:11:10.849Z,6.80
2023-01-26T13:13:57.320Z,3.40
2023-01-26T13:16:33.188Z,3.00
2023-01-26T13:19:01.765Z,3.40
2023-01-26T13:21:38.459Z,4.73
2023-01-26T13:24:25.491Z,4.83
2023-01-26T13:26:59.626Z,3.13
2023-01-26T13:29:28.949Z,2.90
2023-01-26T13:31:57.303Z,4.10
2023-01-26T13:34:36.723Z,4.00
2023-01-26T13:37:14.822Z,4.40
2023-01-26T13:39:44.202Z,4.27
2023-01-26T13:42:27.567Z,4.97
2023-01-26T13:45:06.409Z,3.70
2023-01-26T13:47:40.509Z,3.63
2023-01-26T13:50:32.259Z,3.80
2023-01-26T13:52:59.720Z,4.40
2023-01-26T13:55:35.301Z,4.53
2023-01-26T13:58:16.876Z,4.70
2023-01-26T14:00:57.215Z,4.73
2023-01-26T14:03:24.241Z,6.87
2023-01-26T14:06:13.902Z,4.00
2023-01-26T14:08:48.080Z,6.10
2023-01-26T14:11:21.804Z,6.10
2023-01-26T14:13:56.200Z,6.13
2023-01-26T14:16:35.224Z,5.20
2023-01-26T14:19:16.636Z,5.27
2023-01-26T14:21:53.477Z,6.90
2023-01-26T14:24:27.836Z,5.40
2023-01-26T14:26:54.792Z,4.23
2023-01-26T14:29:26.554Z,4.80
2023-01-26T14:31:56.033Z,4.30
2023-01-26T14:34:25.443Z,4.53
2023-01-26T14:37:15.351Z,4.97
2023-01-26T14:39:44.882Z,5.20
2023-01-26T14:42:21.685Z,5.30
2023-01-26T14:44:48.394Z,6.33
2023-01-26T14:47:20.693Z,6.40
2023-01-26T14:50:17.856Z,9.30
2023-01-26T14:52:46.050Z,9.20
2023-01-26T14:55:27.885Z,7.43
2023-01-26T14:57:58.639Z,7.87
2023-01-26T15:00:34.203Z,9.77
2023-01-26T15:03:17.049Z,7.90
2023-01-26T15:05:44.069Z,7.00
2023-01-26T15:08:20.863Z,6.90
2023-01-26T15:11:16.057Z,6.30
2023-01-26T15:13:45.234Z,6.30
2023-01-26T15:16:20.238Z,6.70
2023-01-26T15:18:58.651Z,7.70
2023-01-26T15:21:33.565Z,6.80
2023-01-26T15:24:00.463Z,6.80
2023-01-26T15:26:30.525Z,6.33
2023-01-26T15:29:05.824Z,5.90
2023-01-26T15:31:36.444Z,5.80
2023-01-26T15:34:04.915Z,5.97
2023-01-26T15:36:33.312Z,5.10
2023-01-26T15:39:17.348Z,5.63
2023-01-26T15:42:01.698Z,5.50
2023-01-26T15:44:28.581Z,6.03
2023-01-26T15:46:56.516Z,6.03
2023-01-26T15:49:23.538Z,7.77
2023-01-26T15:51:51.676Z,5.80
2023-01-26T15:54:19.854Z,6.47
2023-01-26T15:56:46.501Z,5.67
2023-01-26T15:59:13.225Z,5.50
2023-01-26T16:01:40.122Z,5.80
2023-01-26T16:04:09.553Z,5.20
2023-01-26T16:06:36.196Z,4.00
2023-01-26T16:09:03.205Z,7.80
2023-01-26T16:11:34.005Z,12.40
2023-01-26T16:14:04.162Z,8.73
2023-01-26T16:16:32.541Z,11.20
2023-01-26T16:18:59.339Z,14.00
2023-01-26T16:21:31.272Z,12.97
2023-01-26T16:23:58.066Z,11.80
2023-01-26T16:26:26.744Z,8.83
2023-01-26T16:28:53.979Z,9.50
2023-01-26T16:31:22.419Z,7.20
2023-01-26T16:33:50.064Z,7.63
2023-01-26T16:36:20.644Z,10.27
2023-01-26T16:38:47.975Z,13.53
2023-01-26T16:41:29.369Z,12.20
2023-01-26T16:43:58.410Z,14.53
2023-01-26T16:46:25.851Z,10.70
2023-01-26T16:48:52.902Z,11.03
2023-01-26T16:51:40.040Z,14.67
2023-01-26T16:54:06.703Z,10.80
2023-01-26T16:56:33.455Z,10.20
2023-01-26T16:59:00.110Z,8.03
2023-01-26T17:01:32.872Z,10.60
2023-01-26T17:03:59.759Z,11.60
2023-01-26T17:06:26.902Z,11.70
2023-01-26T17:08:53.573Z,9.47
2023-01-26T17:11:27.606Z,8.90
2023-01-26T17:13:56.279Z,11.13
2023-01-26T17:16:32.983Z,10.20
2023-01-26T17:18:59.738Z,10.67
2023-01-26T17:21:29.484Z,13.07
2023-01-26T17:23:58.703Z,11.27
2023-01-26T17:26:25.468Z,16.00
2023-01-26T17:28:55.970Z,11.27
2023-01-26T17:31:23.852Z,9.50
2023-01-26T17:33:50.872Z,6.30
2023-01-26T17:36:19.012Z,5.53
2023-01-26T17:38:46.404Z,6.73
2023-01-26T17:41:13.026Z,7.70
2023-01-26T17:43:39.639Z,6.73
2023-01-26T17:46:07.922Z,5.17
2023-01-26T17:48:37.520Z,4.93
2023-01-26T17:51:08.924Z,5.80
2023-01-26T17:53:40.244Z,5.90
2023-01-26T17:56:08.750Z,7.13
2023-01-26T17:58:36.537Z,6.27
2023-01-26T18:01:04.287Z,8.27
2023-01-26T18:03:30.937Z,13.07
2023-01-26T18:05:57.758Z,10.57
2023-01-26T18:08:25.471Z,8.70
2023-01-26T18:11:03.297Z,7.80
2023-01-26T18:13:31.767Z,7.33
2023-01-26T18:15:59.022Z,7.03
2023-01-26T18:18:27.952Z,8.00
2023-01-26T18:20:55.696Z,8.13
2023-01-26T18:23:24.323Z,7.43
2023-01-26T18:25:51.008Z,6.90
2023-01-26T18:28:17.767Z,11.90
2023-01-26T18:30:44.494Z,10.63
2023-01-26T18:33:11.236Z,10.87
2023-01-26T18:35:37.902Z,7.73
2023-01-26T18:38:04.677Z,7.30
2023-01-26T18:40:31.346Z,7.23
2023-01-26T18:42:58.223Z,8.43
2023-01-26T18:45:24.850Z,9.07
2023-01-26T18:47:51.541Z,8.20
2023-01-26T18:50:18.484Z,7.60
2023-01-26T18:52:45.195Z,8.83
2023-01-26T18:55:12.310Z,6.90
2023-01-26T18:57:39.630Z,7.43
2023-01-26T19:00:08.225Z,8.60
2023-01-26T19:02:39.417Z,8.10
2023-01-26T19:05:07.047Z,10.60
2023-01-26T19:07:33.941Z,11.90
2023-01-26T19:10:00.582Z,9.90
2023-01-26T19:12:27.246Z,7.10
2023-01-26T19:14:53.843Z,9.50
2023-01-26T19:17:20.592Z,10.97
2023-01-26T19:19:47.622Z,10.83
2023-01-26T19:22:14.292Z,11.43
2023-01-26T19:24:42.877Z,11.03
2023-01-26T19:27:09.943Z,12.07
2023-01-26T19:29:36.642Z,8.43
2023-01-26T19:32:03.489Z,7.77
2023-01-26T19:34:31.868Z,7.20
2023-01-26T19:36:58.539Z,7.90
2023-01-26T19:39:25.224Z,12.33
2023-01-26T19:41:52.971Z,12.50
2023-01-26T19:44:19.791Z,15.40
2023-01-26T19:46:46.430Z,12.23
2023-01-26T19:49:15.032Z,17.23
2023-01-26T19:51:41.739Z,10.47
2023-01-26T19:54:09.006Z,9.30
2023-01-26T19:56:36.294Z,9.43
2023-01-26T19:59:06.136Z,8.70
2023-01-26T20:01:33.295Z,9.10
2023-01-26T20:04:03.055Z,8.47
2023-01-26T20:06:32.763Z,9.50
2023-01-26T20:09:00.092Z,8.90
2023-01-26T20:11:29.472Z,8.87
2023-01-26T20:13:57.209Z,8.70
2023-01-26T20:16:24.695Z,8.30
2023-01-26T20:18:51.390Z,8.27
2023-01-26T20:21:18.051Z,9.23
2023-01-26T20:23:53.880Z,7.67
2023-01-26T20:26:21.923Z,8.73
2023-01-26T20:28:48.672Z,8.97
2023-01-26T20:31:18.042Z,8.50
2023-01-26T20:33:48.010Z,9.67
2023-01-26T20:36:20.811Z,8.60
2023-01-26T20:38:48.581Z,10.17
2023-01-26T20:41:19.066Z,10.67
2023-01-26T20:43:58.749Z,10.33
2023-01-26T20:46:32.427Z,10.77
2023-01-26T20:48:59.598Z,10.33
2023-01-26T20:51:30.221Z,9.70
2023-01-26T20:53:57.663Z,9.73
2023-01-26T20:56:24.410Z,9.80
2023-01-26T20:58:53.766Z,9.53
2023-01-26T21:01:21.891Z,9.83
2023-01-26T21:03:48.817Z,8.30
2023-01-26T21:06:19.002Z,8.70
2023-01-26T21:08:46.890Z,9.23
2023-01-26T21:11:15.999Z,8.93
2023-01-26T21:13:43.594Z,8.50
2023-01-26T21:16:13.285Z,8.97
2023-01-26T21:18:40.145Z,9.47
2023-01-26T21:21:10.328Z,8.57
2023-01-26T21:23:36.990Z,8.10
2023-01-26T21:26:11.172Z,7.83
2023-01-26T21:28:37.812Z,7.47
2023-01-26T21:31:06.240Z,7.43
2023-01-26T21:33:34.336Z,7.67
2023-01-26T21:36:02.804Z,8.20
2023-01-26T21:38:35.202Z,7.83
2023-01-26T21:41:29.529Z,7.53
2023-01-26T21:44:01.670Z,7.20
2023-01-26T21:46:29.117Z,7.83
2023-01-26T21:48:56.194Z,7.17
2023-01-26T21:51:42.298Z,6.80
2023-01-26T21:54:08.992Z,7.17
2023-01-26T21:56:36.068Z,7.33
2023-01-26T21:59:06.238Z,7.90
2023-01-26T22:01:35.520Z,8.00
2023-01-26T22:04:04.837Z,7.30
2023-01-26T22:06:31.721Z,6.53
2023-01-26T22:08:58.594Z,8.40
2023-01-26T22:11:26.149Z,7.30
2023-01-26T22:13:53.750Z,7.60
2023-01-26T22:16:20.823Z,8.00
2023-01-26T22:18:50.619Z,7.30
2023-01-26T22:21:18.364Z,8.37
2023-01-26T22:23:45.455Z,8.07
2023-01-26T22:26:17.302Z,7.80
2023-01-26T22:28:50.027Z,7.00
2023-01-26T22:31:19.828Z,7.40
2023-01-26T22:33:47.371Z,6.80
2023-01-26T22:36:14.463Z,7.17
2023-01-26T22:38:41.917Z,8.03
2023-01-26T22:41:14.628Z,7.73
2023-01-26T22:43:42.280Z,7.80
2023-01-26T22:46:11.647Z,8.63
2023-01-26T22:48:38.483Z,8.20
2023-01-26T22:51:18.345Z,8.17
2023-01-26T22:53:45.543Z,7.90
2023-01-26T22:56:12.403Z,7.93
2023-01-26T22:58:56.558Z,7.77
2023-01-26T23:01:26.043Z,8.70
2023-01-26T23:03:54.440Z,8.03
2023-01-26T23:06:21.849Z,8.40
2023-01-26T23:08:48.722Z,7.63
2023-01-26T23:11:16.768Z,8.37
2023-01-26T23:13:45.030Z,7.30
2023-01-26T23:16:12.711Z,8.10
2023-01-26T23:18:39.969Z,8.47
2023-01-26T23:21:07.963Z,8.37
2023-01-26T23:23:35.071Z,7.97
2023-01-26T23:26:02.075Z,7.70
2023-01-26T23:28:31.729Z,8.30
2023-01-26T23:30:59.477Z,6.20
2023-01-26T23:33:28.293Z,6.83
2023-01-26T23:35:55.421Z,7.10
2023-01-26T23:38:24.486Z,8.37
2023-01-26T23:40:51.584Z,7.10
2023-01-26T23:43:19.317Z,7.60
2023-01-26T23:45:47.615Z,7.80
2023-01-26T23:48:14.843Z,7.00
2023-01-26T23:50:42.103Z,7.73
2023-01-26T23:53:09.097Z,7.27
2023-01-26T23:55:39.094Z,6.77
2023-01-26T23:58:05.927Z,7.60
